Time;durP1;ratioP1;P1;durP2;ratioP2;P2;SDS_P1;SDS_P2;PMS_P1;PMS_P2;Temp;Humidity;BMP_temperature;BMP_pressure;BME280_temperature;BME280_humidity;BME280_pressure;Samples;Min_cycle;Max_cycle;Signal;HPM_P1;HPM_P2
2022/08/23 00:02:15;;;;;;;8.05;5.10;;;;;;;-141.48;100.00;69781.59;5231600;28;20031;-84
2022/08/23 00:04:46;;;;;;;5.68;5.28;;;;;;;-141.48;100.00;69781.59;5231699;28;20490;-85
2022/08/23 00:07:16;;;;;;;4.95;4.63;;;;;;;-141.48;100.00;69781.59;5232123;28;20024;-85
2022/08/23 00:09:46;;;;;;;7.68;4.75;;;;;;;-141.48;100.00;69781.59;5231697;28;20039;-85
2022/08/23 00:12:20;;;;;;;6.90;5.93;;;;;;;-141.48;100.00;69781.59;5232085;28;20024;-85
2022/08/23 00:14:53;;;;;;;7.70;6.45;;;;;;;-141.48;100.00;69781.59;5248909;28;20036;-85
2022/08/23 00:17:23;;;;;;;6.43;5.75;;;;;;;-141.48;100.00;69781.59;5231787;28;20020;-84
2022/08/23 00:19:53;;;;;;;6.38;5.57;;;;;;;-141.48;100.00;69781.59;5232029;28;20020;-85
2022/08/23 00:22:24;;;;;;;6.65;6.15;;;;;;;-141.48;100.00;69781.59;5250384;28;20017;-85
2022/08/23 00:24:54;;;;;;;5.63;5.22;;;;;;;-141.48;100.00;69781.59;5249234;28;20017;-85
2022/08/23 00:27:25;;;;;;;13.00;5.97;;;;;;;-141.48;100.00;69781.59;5249916;28;20017;-85
2022/08/23 00:29:56;;;;;;;6.13;5.63;;;;;;;-141.48;100.00;69781.59;5232279;28;20032;-85
2022/08/23 00:32:33;;;;;;;7.00;6.38;;;;;;;-141.48;100.00;69781.59;5249898;28;20103;-85
2022/08/23 00:35:05;;;;;;;7.93;5.30;;;;;;;-141.48;100.00;69781.59;5230445;28;20024;-85
2022/08/23 00:37:36;;;;;;;6.53;5.57;;;;;;;-141.48;100.00;69781.59;5249788;28;20398;-85
2022/08/23 00:40:10;;;;;;;7.00;4.40;;;;;;;-141.48;100.00;69781.59;5231985;28;20047;-85
2022/08/23 00:48:47;;;;;;;5.45;4.93;;;;;;;-141.48;100.00;69781.59;5249750;28;20115;-85
2022/08/23 00:51:26;;;;;;;6.18;5.70;;;;;;;-141.48;100.00;69781.59;5249294;28;20104;-85
2022/08/23 00:54:02;;;;;;;5.15;4.85;;;;;;;-141.48;100.00;69781.59;5232488;28;20021;-85
2022/08/23 00:56:34;;;;;;;7.75;7.05;;;;;;;-141.48;100.00;69781.59;5250289;28;20020;-85
2022/08/23 00:59:05;;;;;;;7.13;5.35;;;;;;;-141.48;100.00;69781.59;5251115;28;20077;-85
2022/08/23 01:01:36;;;;;;;6.43;5.90;;;;;;;-141.48;100.00;69781.59;5251163;28;20024;-85
2022/08/23 01:04:07;;;;;;;7.47;6.57;;;;;;;-141.48;100.00;69781.59;5250654;28;20367;-85
2022/08/23 01:06:48;;;;;;;8.25;6.78;;;;;;;-141.48;100.00;69781.59;5249713;28;20588;-85
2022/08/23 01:09:20;;;;;;;6.40;5.90;;;;;;;-141.48;100.00;69781.59;5249286;28;20134;-85
2022/08/23 01:11:59;;;;;;;9.18;7.13;;;;;;;-141.48;100.00;69781.59;5248989;28;20043;-84
2022/08/23 01:14:56;;;;;;;8.55;7.85;;;;;;;-141.48;100.00;69781.59;5231277;28;20025;-85
2022/08/23 01:17:34;;;;;;;5.50;5.28;;;;;;;-141.48;100.00;69781.59;5231242;28;20031;-85
2022/08/23 01:20:09;;;;;;;6.45;5.85;;;;;;;-141.48;100.00;69781.59;5249091;28;20025;-85
2022/08/23 01:22:49;;;;;;;6.25;5.75;;;;;;;-141.48;100.00;69781.59;5231120;28;20486;-85
2022/08/23 01:25:22;;;;;;;6.03;5.50;;;;;;;-141.48;100.00;69781.59;5239015;28;20509;-85
2022/08/23 01:27:52;;;;;;;5.03;4.72;;;;;;;-141.48;100.00;69781.59;5257204;28;20050;-85
2022/08/23 01:30:31;;;;;;;10.40;7.15;;;;;;;-141.48;100.00;69781.59;5258841;28;20048;-85
2022/08/23 01:33:06;;;;;;;7.32;6.57;;;;;;;-141.48;100.00;69781.59;5240775;28;20035;-85
2022/08/23 01:35:48;;;;;;;14.02;6.55;;;;;;;-141.48;100.00;69781.59;5232332;28;20479;-85
2022/08/23 01:38:19;;;;;;;5.90;5.40;;;;;;;-141.48;100.00;69781.59;5230441;28;20051;-86
2022/08/23 01:40:50;;;;;;;6.63;6.03;;;;;;;-141.48;100.00;69781.59;5230284;28;20052;-85
2022/08/23 01:43:21;;;;;;;6.40;5.82;;;;;;;-141.48;100.00;69781.59;5229843;28;20051;-85
2022/08/23 01:45:52;;;;;;;5.75;5.45;;;;;;;-141.48;100.00;69781.59;5249602;28;20436;-84
2022/08/23 01:48:23;;;;;;;7.72;7.18;;;;;;;-141.48;100.00;69781.59;5253348;28;20024;-85
2022/08/23 01:50:53;;;;;;;7.88;6.65;;;;;;;-141.48;100.00;69781.59;5252768;28;20056;-84
2022/08/23 01:53:24;;;;;;;7.32;6.70;;;;;;;-141.48;100.00;69781.59;5252676;28;20047;-84
2022/08/23 01:55:54;;;;;;;8.32;7.70;;;;;;;-141.48;100.00;69781.59;5234638;28;20027;-84
2022/08/23 01:58:25;;;;;;;7.60;6.95;;;;;;;-141.48;100.00;69781.59;5252002;28;20028;-85
2022/08/23 02:00:56;;;;;;;6.65;6.10;;;;;;;-141.48;100.00;69781.59;5251355;28;20024;-86
2022/08/23 02:03:27;;;;;;;8.23;6.93;;;;;;;-141.48;100.00;69781.59;5250952;28;20038;-85
2022/08/23 02:05:58;;;;;;;8.20;7.68;;;;;;;-141.48;100.00;69781.59;5251920;28;20509;-85
2022/08/23 02:11:21;;;;;;;7.38;6.32;;;;;;;-141.48;100.00;69781.59;5251546;28;20410;-85
2022/08/23 02:13:53;;;;;;;7.10;6.60;;;;;;;-141.48;100.00;69781.59;5233366;28;20640;-85
2022/08/23 02:16:32;;;;;;;13.50;8.55;;;;;;;-141.48;100.00;69781.59;5251783;28;20025;-84
2022/08/23 02:19:06;;;;;;;11.75;7.57;;;;;;;-141.48;100.00;69781.59;5257041;28;20028;-85
2022/08/23 02:21:37;;;;;;;8.50;7.80;;;;;;;-141.48;100.00;69781.59;5243885;28;20024;-85
2022/08/23 02:24:11;;;;;;;8.30;7.80;;;;;;;-141.48;100.00;69781.59;5261510;28;20055;-85
2022/08/23 02:26:45;;;;;;;7.85;7.18;;;;;;;-141.48;100.00;69781.59;5262719;28;20016;-85
2022/08/23 02:29:19;;;;;;;8.15;7.50;;;;;;;-141.48;100.00;69781.59;5261919;28;20032;-86
2022/08/23 02:31:49;;;;;;;9.70;8.80;;;;;;;-141.48;100.00;69781.59;5261787;28;20016;-85
2022/08/23 02:34:20;;;;;;;11.20;9.32;;;;;;;-141.48;100.00;69781.59;5243414;28;20025;-86
2022/08/23 02:36:51;;;;;;;9.45;8.55;;;;;;;-141.48;100.00;69781.59;5243473;28;20229;-85
2022/08/23 02:39:22;;;;;;;11.65;10.63;;;;;;;-141.48;100.00;69781.59;5243892;28;20091;-86
2022/08/23 02:41:53;;;;;;;8.93;8.02;;;;;;;-141.48;100.00;69781.59;5261390;28;20039;-86
2022/08/23 02:44:23;;;;;;;11.18;10.18;;;;;;;-141.48;100.00;69781.59;5260278;28;20025;-86
2022/08/23 02:46:53;;;;;;;13.32;10.10;;;;;;;-141.48;100.00;69781.59;5260795;28;20107;-85
2022/08/23 02:49:24;;;;;;;9.82;9.00;;;;;;;-141.48;100.00;69781.59;5261262;28;20028;-85
2022/08/23 02:51:55;;;;;;;9.80;8.98;;;;;;;-141.48;100.00;69781.59;5260776;28;20076;-86
2022/08/23 02:54:25;;;;;;;10.20;9.35;;;;;;;-141.48;100.00;69781.59;5259799;28;20021;-86
2022/08/23 02:56:56;;;;;;;11.25;10.45;;;;;;;-141.48;100.00;69781.59;5260462;28;20025;-86
2022/08/23 02:59:26;;;;;;;8.35;7.75;;;;;;;-141.48;100.00;69781.59;5241146;28;20093;-86
2022/08/23 03:01:57;;;;;;;13.02;11.93;;;;;;;-141.48;100.00;69781.59;5277490;22;20382;-81
2022/08/23 03:04:27;;;;;;;13.40;10.57;;;;;;;-141.48;100.00;69781.59;5235121;28;20052;-81
2022/08/23 03:06:58;;;;;;;10.20;9.18;;;;;;;-141.48;100.00;69781.59;5254195;28;20044;-81
2022/08/23 03:09:28;;;;;;;10.98;10.02;;;;;;;-141.48;100.00;69781.59;5252985;28;20366;-78
2022/08/23 03:11:58;;;;;;;10.43;9.60;;;;;;;-141.48;100.00;69781.59;5234848;28;20048;-82
2022/08/23 03:14:29;;;;;;;12.13;11.23;;;;;;;-141.48;100.00;69781.59;5234358;28;20112;-81
2022/08/23 03:16:59;;;;;;;12.57;10.95;;;;;;;-141.48;100.00;69781.59;5252515;28;20027;-81
2022/08/23 03:19:30;;;;;;;11.27;10.32;;;;;;;-141.48;100.00;69781.59;5251729;28;20088;-79
2022/08/23 03:22:00;;;;;;;9.43;8.82;;;;;;;-141.48;100.00;69781.59;5252407;28;20086;-80
2022/08/23 03:24:30;;;;;;;10.90;10.20;;;;;;;-141.48;100.00;69781.59;5233703;28;20146;-78
2022/08/23 03:27:02;;;;;;;12.32;10.63;;;;;;;-141.48;100.00;69781.59;5252317;28;20016;-79
2022/08/23 03:29:32;;;;;;;11.68;10.80;;;;;;;-141.48;100.00;69781.59;5252570;28;20020;-79
2022/08/23 03:32:04;;;;;;;14.88;10.32;;;;;;;-141.48;100.00;69781.59;5252169;28;20035;-79
2022/08/23 03:34:34;;;;;;;10.73;9.57;;;;;;;-141.48;100.00;69781.59;5250945;28;20145;-80
2022/08/23 03:37:05;;;;;;;10.75;10.05;;;;;;;-141.48;100.00;69781.59;5252640;28;20065;-79
2022/08/23 03:39:36;;;;;;;10.35;9.55;;;;;;;-141.48;100.00;69781.59;5252627;28;20032;-79
2022/08/23 03:42:07;;;;;;;11.70;10.80;;;;;;;-141.48;100.00;69781.59;5252095;28;20342;-79
2022/08/23 03:44:38;;;;;;;11.35;10.35;;;;;;;-141.48;100.00;69781.59;5232402;28;20028;-80
2022/08/23 03:47:08;;;;;;;10.00;9.30;;;;;;;-141.48;100.00;69781.59;5251602;28;20474;-81
2022/08/23 03:49:38;;;;;;;9.70;8.98;;;;;;;-141.48;100.00;69781.59;5252071;28;20103;-81
2022/08/23 03:52:10;;;;;;;11.05;10.35;;;;;;;-141.48;100.00;69781.59;5251402;28;20055;-81
2022/08/23 03:54:40;;;;;;;10.32;9.32;;;;;;;-141.48;100.00;69781.59;5250560;28;20029;-80
2022/08/23 03:57:11;;;;;;;13.57;9.95;;;;;;;-141.48;100.00;69781.59;5232760;28;20413;-81
2022/08/23 03:59:41;;;;;;;9.23;8.43;;;;;;;-141.48;100.00;69781.59;5251492;28;20444;-81
2022/08/23 04:02:12;;;;;;;10.85;9.95;;;;;;;-141.48;100.00;69781.59;5251098;28;20116;-82
2022/08/23 04:04:42;;;;;;;18.80;10.95;;;;;;;-141.48;100.00;69781.59;5232154;28;20016;-81
2022/08/23 04:07:17;;;;;;;12.20;10.95;;;;;;;-141.48;100.00;69781.59;5251630;28;20028;-80
2022/08/23 04:09:47;;;;;;;15.15;12.90;;;;;;;-141.48;100.00;69781.59;5233355;28;20021;-81
2022/08/23 04:12:18;;;;;;;11.88;11.07;;;;;;;-141.48;100.00;69781.59;5252949;28;20028;-81
2022/08/23 04:18:16;;;;;;;10.77;10.10;;;;;;;-141.48;100.00;69781.59;5256700;28;20062;-81
2022/08/23 04:20:47;;;;;;;13.05;12.05;;;;;;;-141.48;100.00;69781.59;5255229;28;20020;-80
2022/08/23 04:23:18;;;;;;;12.38;11.10;;;;;;;-141.48;100.00;69781.59;5256669;22;20089;-63
2022/08/23 04:25:48;;;;;;;20.50;13.65;;;;;;;-141.48;100.00;69781.59;5230281;28;20028;-62
2022/08/23 04:28:19;;;;;;;12.35;11.20;;;;;;;-141.48;100.00;69781.59;5224107;28;20028;-63
2022/08/23 04:30:50;;;;;;;15.35;14.18;;;;;;;-141.48;100.00;69781.59;5224054;28;20033;-63
2022/08/23 04:33:21;;;;;;;14.20;12.82;;;;;;;-141.48;100.00;69781.59;5222944;28;20400;-62
2022/08/23 04:35:51;;;;;;;14.55;13.25;;;;;;;-141.48;100.00;69781.59;5246699;22;20023;-78
2022/08/23 04:38:22;;;;;;;14.80;13.65;;;;;;;-141.48;100.00;69781.59;5237934;28;20133;-80
2022/08/23 04:43:43;;;;;;;20.55;13.50;;;;;;;-141.48;100.00;69781.59;5247765;28;20408;-79
2022/08/23 04:46:15;;;;;;;16.90;15.00;;;;;;;-141.48;100.00;69781.59;5248710;28;20028;-80
2022/08/23 04:48:46;;;;;;;22.00;14.70;;;;;;;-141.48;100.00;69781.59;5249405;28;20044;-77
2022/08/23 04:51:17;;;;;;;14.30;12.88;;;;;;;-141.48;100.00;69781.59;5247485;28;20100;-82
2022/08/23 04:53:47;;;;;;;15.23;13.73;;;;;;;-141.48;100.00;69781.59;5248382;28;20107;-80
2022/08/23 04:56:18;;;;;;;18.00;14.52;;;;;;;-141.48;100.00;69781.59;5249063;28;20020;-80
2022/08/23 04:58:48;;;;;;;18.45;16.27;;;;;;;-141.48;100.00;69781.59;5246071;28;20028;-79
2022/08/23 05:01:19;;;;;;;16.80;15.10;;;;;;;-141.48;100.00;69781.59;5245871;28;20024;-80
2022/08/23 05:03:49;;;;;;;17.70;15.40;;;;;;;-141.48;100.00;69781.59;5245347;28;20485;-80
2022/08/23 05:06:20;;;;;;;16.15;13.90;;;;;;;-141.48;100.00;69781.59;5257373;28;20017;-80
2022/08/23 05:08:51;;;;;;;16.45;15.15;;;;;;;-141.48;100.00;69781.59;5248378;28;20434;-80
2022/08/23 05:11:23;;;;;;;16.15;14.68;;;;;;;-141.48;100.00;69781.59;5247920;28;20117;-80
2022/08/23 05:13:54;;;;;;;17.83;16.50;;;;;;;-141.48;100.00;69781.59;5247851;28;20055;-80
2022/08/23 05:16:24;;;;;;;20.70;17.50;;;;;;;-141.48;100.00;69781.59;5248642;28;20052;-79
2022/08/23 05:18:55;;;;;;;16.83;15.43;;;;;;;-141.48;100.00;69781.59;5248952;28;20088;-80
2022/08/23 05:21:25;;;;;;;15.65;14.35;;;;;;;-141.48;100.00;69781.59;5231990;28;20028;-79
2022/08/23 05:23:56;;;;;;;16.52;15.13;;;;;;;-141.48;100.00;69781.59;5252823;28;20024;-80
2022/08/23 05:26:26;;;;;;;19.33;16.58;;;;;;;-141.48;100.00;69781.59;5253119;28;20164;-80
2022/08/23 05:28:56;;;;;;;18.23;16.23;;;;;;;-141.48;100.00;69781.59;5253223;28;20028;-80
2022/08/23 05:31:28;;;;;;;15.20;13.93;;;;;;;-141.48;100.00;69781.59;5253885;28;20028;-80
2022/08/23 05:33:58;;;;;;;22.20;17.80;;;;;;;-141.48;100.00;69781.59;5252511;28;20028;-80
2022/08/23 05:36:29;;;;;;;19.70;17.75;;;;;;;-141.48;100.00;69781.59;5212744;28;20035;-80
2022/08/23 05:38:59;;;;;;;17.55;16.05;;;;;;;-141.48;100.00;69781.59;5232618;28;20021;-80
2022/08/23 05:41:30;;;;;;;16.50;14.27;;;;;;;-141.48;100.00;69781.59;5232885;28;20029;-79
2022/08/23 05:44:00;;;;;;;16.80;15.25;;;;;;;-141.48;100.00;69781.59;5233043;28;20047;-79
2022/08/23 05:46:32;;;;;;;19.08;16.48;;;;;;;-141.48;100.00;69781.59;5233686;28;20099;-80
2022/08/23 05:49:03;;;;;;;18.20;16.23;;;;;;;-141.48;100.00;69781.59;5230512;28;20043;-79
2022/08/23 05:51:34;;;;;;;15.77;14.15;;;;;;;-141.48;100.00;69781.59;5247562;22;20038;-67
2022/08/23 05:54:07;;;;;;;16.73;14.93;;;;;;;-141.48;100.00;69781.59;5268161;28;20380;-68
2022/08/23 05:56:41;;;;;;;22.77;17.75;;;;;;;-141.48;100.00;69781.59;5266689;28;20448;-68
2022/08/23 05:59:14;;;;;;;17.13;15.35;;;;;;;-141.48;100.00;69781.59;5268675;28;20114;-68
2022/08/23 06:01:45;;;;;;;17.15;15.35;;;;;;;-141.48;100.00;69781.59;5286929;22;20051;-66
2022/08/23 06:04:16;;;;;;;16.63;15.05;;;;;;;-141.48;100.00;69781.59;5271435;28;20367;-65
2022/08/23 06:06:47;;;;;;;18.45;15.27;;;;;;;-141.48;100.00;69781.59;5264295;28;20464;-65
2022/08/23 06:09:18;;;;;;;18.27;13.85;;;;;;;-141.48;100.00;69781.59;5268836;28;20436;-66
2022/08/23 06:11:48;;;;;;;16.05;14.63;;;;;;;-141.48;100.00;69781.59;5269131;28;20099;-66
2022/08/23 06:14:19;;;;;;;18.73;16.08;;;;;;;-141.48;100.00;69781.59;5268344;28;20024;-65
2022/08/23 06:16:50;;;;;;;15.48;13.93;;;;;;;-141.48;100.00;69781.59;5282201;22;20066;-67
2022/08/23 06:19:20;;;;;;;21.42;14.25;;;;;;;-141.48;100.00;69781.59;5264420;28;20024;-67
2022/08/23 06:21:51;;;;;;;14.88;13.55;;;;;;;-141.48;100.00;69781.59;5246256;28;20050;-68
2022/08/23 06:27:49;;;;;;;17.83;14.63;;;;;;;-141.48;100.00;69781.59;5237416;28;20017;-67
2022/08/23 06:30:19;;;;;;;22.67;14.20;;;;;;;-141.48;100.00;69781.59;5266953;28;20376;-67
2022/08/23 06:32:49;;;;;;;18.10;16.33;;;;;;;-141.48;100.00;69781.59;5266491;28;20102;-67
2022/08/23 06:35:20;;;;;;;15.93;14.65;;;;;;;-141.48;100.00;69781.59;5265832;28;20133;-67
2022/08/23 06:37:50;;;;;;;17.52;15.85;;;;;;;-141.48;100.00;69781.59;5266545;28;20031;-67
2022/08/23 06:40:20;;;;;;;18.48;14.90;;;;;;;-141.48;100.00;69781.59;5266688;28;20058;-67
2022/08/23 06:42:52;;;;;;;15.55;14.07;;;;;;;-141.48;100.00;69781.59;5266228;28;20028;-67
2022/08/23 06:45:23;;;;;;;16.52;14.82;;;;;;;-141.48;100.00;69781.59;5266146;28;20146;-67
2022/08/23 06:47:54;;;;;;;15.52;14.05;;;;;;;-141.48;100.00;69781.59;5266722;28;20012;-69
2022/08/23 06:50:24;;;;;;;17.27;13.75;;;;;;;-141.48;100.00;69781.59;5267737;28;20490;-66
2022/08/23 06:52:55;;;;;;;18.70;15.02;;;;;;;-141.48;100.00;69781.59;5267233;28;20058;-67
2022/08/23 06:55:25;;;;;;;18.60;15.18;;;;;;;-141.48;100.00;69781.59;5247599;28;20028;-67
2022/08/23 06:57:55;;;;;;;16.00;14.45;;;;;;;-141.48;100.00;69781.59;5267022;28;19912;-67
2022/08/23 07:00:26;;;;;;;14.00;12.60;;;;;;;-141.48;100.00;69781.59;5266651;28;20027;-67
2022/08/23 07:02:57;;;;;;;15.35;13.90;;;;;;;-141.48;100.00;69781.59;5266506;28;20027;-67
2022/08/23 07:05:27;;;;;;;16.73;15.15;;;;;;;-141.48;100.00;69781.59;5265885;28;20395;-67
2022/08/23 07:07:58;;;;;;;19.85;14.57;;;;;;;-141.48;100.00;69781.59;5247799;28;20074;-67
2022/08/23 07:10:28;;;;;;;15.77;12.32;;;;;;;-141.48;100.00;69781.59;5265844;28;20034;-67
2022/08/23 07:12:58;;;;;;;14.90;12.00;;;;;;;-141.48;100.00;69781.59;5265621;28;20130;-67
2022/08/23 07:15:29;;;;;;;18.10;16.35;;;;;;;-141.48;100.00;69781.59;5246872;28;20032;-67
2022/08/23 07:17:59;;;;;;;17.63;14.23;;;;;;;-141.48;100.00;69781.59;5266711;28;20028;-67
2022/08/23 07:20:30;;;;;;;12.55;11.63;;;;;;;-141.48;100.00;69781.59;5266272;28;20027;-67
2022/08/23 07:23:00;;;;;;;21.33;13.32;;;;;;;-141.48;100.00;69781.59;5256681;28;20032;-67
2022/08/23 07:25:31;;;;;;;14.38;12.57;;;;;;;-141.48;100.00;69781.59;5224132;28;20104;-67
2022/08/23 07:28:01;;;;;;;13.50;12.10;;;;;;;-141.48;100.00;69781.59;5237090;28;20025;-67
2022/08/23 07:30:32;;;;;;;12.30;11.15;;;;;;;-141.48;100.00;69781.59;5245553;28;20169;-67
2022/08/23 07:33:02;;;;;;;13.45;12.18;;;;;;;-141.48;100.00;69781.59;5245034;28;20401;-67
2022/08/23 07:35:33;;;;;;;24.85;11.68;;;;;;;-141.48;100.00;69781.59;5245059;28;20099;-67
2022/08/23 07:38:03;;;;;;;12.32;11.32;;;;;;;-141.48;100.00;69781.59;5245074;28;20353;-67
2022/08/23 07:40:34;;;;;;;22.73;10.60;;;;;;;-141.48;100.00;69781.59;5245336;28;20499;-67
2022/08/23 07:43:04;;;;;;;12.68;10.25;;;;;;;-141.48;100.00;69781.59;5245523;28;20039;-67
2022/08/23 07:45:35;;;;;;;10.85;9.88;;;;;;;-141.48;100.00;69781.59;5244467;28;20384;-67
2022/08/23 07:48:06;;;;;;;18.02;10.73;;;;;;;-141.48;100.00;69781.59;5243407;28;20051;-67
2022/08/23 07:50:36;;;;;;;10.35;8.20;;;;;;;-141.48;100.00;69781.59;5225294;28;20016;-67
2022/08/23 07:53:07;;;;;;;8.88;7.78;;;;;;;-141.48;100.00;69781.59;5245113;28;20099;-67
2022/08/23 07:55:38;;;;;;;9.85;8.20;;;;;;;-141.48;100.00;69781.59;5245245;28;20280;-67
2022/08/23 07:58:09;;;;;;;10.70;8.73;;;;;;;-141.48;100.00;69781.59;5244865;28;20457;-65
2022/08/23 08:00:39;;;;;;;8.60;7.88;;;;;;;-141.48;100.00;69781.59;5236927;28;20085;-66
2022/08/23 08:03:11;;;;;;;6.18;5.68;;;;;;;-141.48;100.00;69781.59;5245068;28;20364;-67
2022/08/23 08:05:42;;;;;;;13.15;7.75;;;;;;;-141.48;100.00;69781.59;5254408;22;20020;-67
2022/08/23 08:08:12;;;;;;;6.72;6.03;;;;;;;-141.48;100.00;69781.59;5246187;28;20102;-67
2022/08/23 08:10:43;;;;;;;8.80;6.35;;;;;;;-141.48;100.00;69781.59;5263616;28;20024;-67
2022/08/23 08:13:13;;;;;;;8.00;7.10;;;;;;;-141.48;100.00;69781.59;5263441;28;20340;-67
2022/08/23 08:15:43;;;;;;;5.30;4.97;;;;;;;-141.48;100.00;69781.59;5263581;28;20107;-67
2022/08/23 08:18:14;;;;;;;7.53;6.85;;;;;;;-141.48;100.00;69781.59;5262950;28;20031;-67
2022/08/23 08:20:44;;;;;;;8.70;7.55;;;;;;;-141.48;100.00;69781.59;5262962;28;20153;-67
2022/08/23 08:23:15;;;;;;;13.63;6.70;;;;;;;-141.48;100.00;69781.59;5264023;28;20024;-68
2022/08/23 08:25:45;;;;;;;6.22;5.63;;;;;;;-141.48;100.00;69781.59;5263747;28;20020;-68
2022/08/23 08:28:15;;;;;;;8.30;7.03;;;;;;;-141.48;100.00;69781.59;5262586;28;20071;-68
2022/08/23 08:30:46;;;;;;;9.00;6.28;;;;;;;-141.48;100.00;69781.59;5260260;28;20024;-69
2022/08/23 08:33:16;;;;;;;6.68;4.88;;;;;;;-141.48;100.00;69781.59;5244564;28;20391;-69
2022/08/23 08:35:48;;;;;;;8.27;5.20;;;;;;;-141.48;100.00;69781.59;5262894;28;20099;-67
2022/08/23 08:38:18;;;;;;;6.05;5.25;;;;;;;-141.48;100.00;69781.59;5260174;28;20028;-68
2022/08/23 08:40:59;;;;;;;10.00;4.75;;;;;;;-141.48;100.00;69781.59;5264181;28;20024;-67
2022/08/23 08:43:56;;;;;;;13.85;5.85;;;;;;;-141.48;100.00;69781.59;5229718;28;20031;-68
2022/08/23 08:46:33;;;;;;;4.05;3.45;;;;;;;-141.48;100.00;69781.59;5245996;28;20039;-68
2022/08/23 08:49:06;;;;;;;5.75;5.22;;;;;;;-141.48;100.00;69781.59;5263971;28;20057;-67
2022/08/23 08:51:46;;;;;;;5.80;4.55;;;;;;;-141.48;100.00;69781.59;5262890;28;20028;-67
2022/08/23 08:54:20;;;;;;;3.78;3.47;;;;;;;-141.48;100.00;69781.59;5263952;28;20020;-67
2022/08/23 08:56:54;;;;;;;5.47;4.57;;;;;;;-141.48;100.00;69781.59;5245621;28;20028;-67
2022/08/23 08:59:34;;;;;;;11.15;6.65;;;;;;;-141.48;100.00;69781.59;5263877;28;20036;-68
2022/08/23 09:02:07;;;;;;;3.88;3.67;;;;;;;-141.48;100.00;69781.59;5245758;28;20383;-68
2022/08/23 09:04:38;;;;;;;9.88;4.50;;;;;;;-141.48;100.00;69781.59;5263907;28;20096;-67
2022/08/23 09:07:25;;;;;;;3.75;2.92;;;;;;;-141.48;100.00;69781.59;5263774;28;20021;-67
2022/08/23 09:09:56;;;;;;;5.32;3.47;;;;;;;-141.48;100.00;69781.59;5264397;28;20036;-67
2022/08/23 09:12:29;;;;;;;5.10;2.40;;;;;;;-141.48;100.00;69781.59;5264056;28;20035;-68
2022/08/23 09:15:25;;;;;;;3.72;2.78;;;;;;;-141.48;100.00;69781.59;5264051;28;20429;-67
2022/08/23 09:18:06;;;;;;;9.90;3.65;;;;;;;-141.48;100.00;69781.59;5263846;28;20077;-68
2022/08/23 09:20:38;;;;;;;2.65;2.20;;;;;;;-141.48;100.00;69781.59;5264274;28;20071;-67
2022/08/23 09:23:14;;;;;;;3.08;2.40;;;;;;;-141.48;100.00;69781.59;5263777;28;20395;-67
2022/08/23 09:26:16;;;;;;;2.53;2.42;;;;;;;-141.48;100.00;69781.59;5264290;28;20028;-68
2022/08/23 09:28:54;;;;;;;2.88;2.47;;;;;;;-141.48;100.00;69781.59;5219409;28;20403;-67
2022/08/23 09:31:38;;;;;;;6.32;2.45;;;;;;;-141.48;100.00;69781.59;5247035;28;20027;-68
2022/08/23 09:34:16;;;;;;;3.80;3.33;;;;;;;-141.48;100.00;69781.59;5265423;28;20415;-68
2022/08/23 09:36:47;;;;;;;2.30;2.20;;;;;;;-141.48;100.00;69781.59;5264965;28;20020;-68
2022/08/23 09:39:38;;;;;;;4.55;2.13;;;;;;;-141.48;100.00;69781.59;5264594;28;20020;-68
2022/08/23 09:42:36;;;;;;;4.10;2.17;;;;;;;-141.48;100.00;69781.59;5265355;28;20380;-68
2022/08/23 09:45:28;;;;;;;1.73;1.65;;;;;;;-141.48;100.00;69781.59;5264662;28;20047;-68
2022/08/23 09:47:59;;;;;;;2.80;2.60;;;;;;;-141.48;100.00;69781.59;5264491;28;20020;-68
2022/08/23 09:50:41;;;;;;;4.63;2.65;;;;;;;-141.48;100.00;69781.59;5264932;28;20341;-68
2022/08/23 09:53:13;;;;;;;4.45;2.35;;;;;;;-141.48;100.00;69781.59;5246829;28;20024;-68
2022/08/23 09:55:51;;;;;;;6.70;2.72;;;;;;;-141.48;100.00;69781.59;5246240;28;20035;-67
2022/08/23 09:58:31;;;;;;;1.98;1.70;;;;;;;-141.48;100.00;69781.59;5246499;28;20028;-68
2022/08/23 10:01:33;;;;;;;4.03;3.65;;;;;;;-141.48;100.00;69781.59;5264442;28;20031;-68
2022/08/23 10:04:30;;;;;;;3.00;2.80;;;;;;;-141.48;100.00;69781.59;5263808;28;20135;-68
2022/08/23 10:07:19;;;;;;;2.10;2.00;;;;;;;-141.48;100.00;69781.59;5245990;28;20122;-68
2022/08/23 10:09:49;;;;;;;2.30;2.10;;;;;;;-141.48;100.00;69781.59;5268382;28;20395;-67
2022/08/23 10:12:21;;;;;;;7.00;3.08;;;;;;;-141.48;100.00;69781.59;5268521;28;20094;-67
2022/08/23 10:14:52;;;;;;;2.33;1.98;;;;;;;-141.48;100.00;69781.59;5268624;28;20039;-67
2022/08/23 10:17:59;;;;;;;2.30;1.90;;;;;;;-141.48;100.00;69781.59;5268088;28;20020;-67
2022/08/23 10:21:00;;;;;;;3.20;2.90;;;;;;;-141.48;100.00;69781.59;5268402;28;20406;-67
2022/08/23 10:23:53;;;;;;;1.75;1.65;;;;;;;-141.48;100.00;69781.59;5255933;28;20044;-67
2022/08/23 10:26:30;;;;;;;6.47;2.58;;;;;;;-141.48;100.00;69781.59;5216193;28;20040;-67
2022/08/23 10:29:37;;;;;;;2.60;2.35;;;;;;;-141.48;100.00;69781.59;5247045;28;20272;-67
2022/08/23 10:32:22;;;;;;;1.55;1.45;;;;;;;-141.48;100.00;69781.59;5270210;22;20036;-66
2022/08/23 10:35:13;;;;;;;2.20;2.10;;;;;;;-141.48;100.00;69781.59;5245953;28;20064;-66
2022/08/23 10:38:11;;;;;;;1.40;1.40;;;;;;;-141.48;100.00;69781.59;5228768;28;20025;-66
2022/08/23 10:40:59;;;;;;;3.85;2.13;;;;;;;-141.48;100.00;69781.59;5246952;28;20112;-66
2022/08/23 10:43:30;;;;;;;2.07;1.80;;;;;;;-141.48;100.00;69781.59;5246519;28;20376;-66
2022/08/23 10:46:01;;;;;;;27.02;7.90;;;;;;;-141.48;100.00;69781.59;5246340;28;20039;-66
2022/08/23 10:48:36;;;;;;;3.08;2.88;;;;;;;-141.48;100.00;69781.59;5246000;28;20024;-66
2022/08/23 10:51:31;;;;;;;5.57;3.97;;;;;;;-141.48;100.00;69781.59;5245713;28;20020;-65
2022/08/23 10:54:45;;;;;;;3.65;2.97;;;;;;;-141.48;100.00;69781.59;5246094;28;20471;-66
2022/08/23 10:57:19;;;;;;;7.00;3.45;;;;;;;-141.48;100.00;69781.59;5216429;28;20115;-65
2022/08/23 10:59:51;;;;;;;5.65;2.13;;;;;;;-141.48;100.00;69781.59;5246383;28;20104;-65
2022/08/23 11:02:40;;;;;;;2.58;2.08;;;;;;;-141.48;100.00;69781.59;5246387;28;20195;-66
2022/08/23 11:05:25;;;;;;;2.70;2.05;;;;;;;-141.48;100.00;69781.59;5245899;28;20021;-65
2022/08/23 11:08:02;;;;;;;2.15;2.05;;;;;;;-141.48;100.00;69781.59;5245411;28;20021;-65
2022/08/23 11:10:38;;;;;;;3.83;2.38;;;;;;;-141.48;100.00;69781.59;5246256;28;20039;-65
2022/08/23 11:13:11;;;;;;;13.73;4.57;;;;;;;-141.48;100.00;69781.59;5245945;28;20035;-65
2022/08/23 11:15:57;;;;;;;3.03;2.83;;;;;;;-141.48;100.00;69781.59;5245613;28;20036;-65
2022/08/23 11:18:49;;;;;;;5.82;2.78;;;;;;;-141.48;100.00;69781.59;5227684;28;20135;-65
2022/08/23 11:21:30;;;;;;;4.32;3.35;;;;;;;-141.48;100.00;69781.59;5246039;28;20028;-66
2022/08/23 11:24:01;;;;;;;4.63;2.00;;;;;;;-141.48;100.00;69781.59;5245427;28;20161;-65
2022/08/23 11:26:40;;;;;;;3.88;2.45;;;;;;;-141.48;100.00;69781.59;5245496;28;20716;-66
2022/08/23 11:29:10;;;;;;;14.93;3.83;;;;;;;-141.48;100.00;69781.59;5227374;28;20435;-65
2022/08/23 11:32:12;;;;;;;4.93;2.72;;;;;;;-141.48;100.00;69781.59;5245626;28;20029;-66
2022/08/23 11:34:50;;;;;;;3.05;2.20;;;;;;;-141.48;100.00;69781.59;5244570;28;20032;-66
2022/08/23 11:37:21;;;;;;;3.08;1.80;;;;;;;-141.48;100.00;69781.59;5245193;28;20511;-66
2022/08/23 11:39:57;;;;;;;3.05;2.85;;;;;;;-141.48;100.00;69781.59;5244947;28;20068;-66
2022/08/23 11:42:36;;;;;;;2.13;2.00;;;;;;;-141.48;100.00;69781.59;5245214;28;20063;-66
2022/08/23 11:45:38;;;;;;;2.25;2.03;;;;;;;-141.48;100.00;69781.59;5244711;28;20033;-65
2022/08/23 11:48:17;;;;;;;9.15;4.45;;;;;;;-141.48;100.00;69781.59;5228892;28;20055;-65
2022/08/23 11:50:50;;;;;;;2.15;1.75;;;;;;;-141.48;100.00;69781.59;5245183;28;20060;-65
2022/08/23 11:53:40;;;;;;;3.50;3.25;;;;;;;-141.48;100.00;69781.59;5244441;28;20028;-65